sensor_id;sensor_type;location;lat;lon;timestamp;P1;durP1;ratioP1;P2;durP2;ratioP2
10509;SDS011;5303;53.266;10.410;2023-02-04T00:01:16;2.47;;;1.70;;
10509;SDS011;5303;53.266;10.410;2023-02-04T00:03:41;2.77;;;1.90;;
10509;SDS011;5303;53.266;10.410;2023-02-04T00:06:07;3.80;;;2.13;;
10509;SDS011;5303;53.266;10.410;2023-02-04T00:08:32;2.93;;;1.90;;
10509;SDS011;5303;53.266;10.410;2023-02-04T00:10:57;1.90;;;1.70;;
10509;SDS011;5303;53.266;10.410;2023-02-04T00:13:23;2.13;;;1.60;;
10509;SDS011;5303;53.266;10.410;2023-02-04T00:15:48;2.67;;;1.63;;
10509;SDS011;5303;53.266;10.410;2023-02-04T00:18:13;2.43;;;1.60;;
10509;SDS011;5303;53.266;10.410;2023-02-04T00:20:38;2.07;;;1.50;;
10509;SDS011;5303;53.266;10.410;2023-02-04T00:23:04;2.00;;;1.40;;
10509;SDS011;5303;53.266;10.410;2023-02-04T00:25:29;2.93;;;1.53;;
10509;SDS011;5303;53.266;10.410;2023-02-04T00:27:54;2.43;;;1.60;;
10509;SDS011;5303;53.266;10.410;2023-02-04T00:30:19;1.67;;;1.57;;
10509;SDS011;5303;53.266;10.410;2023-02-04T00:32:45;1.73;;;1.43;;
10509;SDS011;5303;53.266;10.410;2023-02-04T00:35:10;3.50;;;1.70;;
10509;SDS011;5303;53.266;10.410;2023-02-04T00:37:35;1.87;;;1.67;;
10509;SDS011;5303;53.266;10.410;2023-02-04T00:40:01;2.23;;;1.57;;
10509;SDS011;5303;53.266;10.410;2023-02-04T00:42:26;2.27;;;1.67;;
10509;SDS011;5303;53.266;10.410;2023-02-04T00:44:51;2.37;;;1.57;;
10509;SDS011;5303;53.266;10.410;2023-02-04T00:47:17;2.37;;;1.60;;
10509;SDS011;5303;53.266;10.410;2023-02-04T00:49:42;2.00;;;1.53;;
10509;SDS011;5303;53.266;10.410;2023-02-04T00:52:08;2.90;;;1.43;;
10509;SDS011;5303;53.266;10.410;2023-02-04T00:54:33;2.60;;;1.50;;
10509;SDS011;5303;53.266;10.410;2023-02-04T00:56:58;2.57;;;1.60;;
10509;SDS011;5303;53.266;10.410;2023-02-04T00:59:24;4.30;;;1.97;;
10509;SDS011;5303;53.266;10.410;2023-02-04T01:01:49;3.43;;;2.23;;
10509;SDS011;5303;53.266;10.410;2023-02-04T01:04:15;4.90;;;2.00;;
10509;SDS011;5303;53.266;10.410;2023-02-04T01:06:41;3.37;;;2.03;;
10509;SDS011;5303;53.266;10.410;2023-02-04T01:09:06;6.20;;;2.20;;
10509;SDS011;5303;53.266;10.410;2023-02-04T01:11:32;3.90;;;1.80;;
10509;SDS011;5303;53.266;10.410;2023-02-04T01:13:58;2.10;;;1.67;;
10509;SDS011;5303;53.266;10.410;2023-02-04T01:16:23;2.13;;;1.90;;
10509;SDS011;5303;53.266;10.410;2023-02-04T01:18:49;2.50;;;1.90;;
10509;SDS011;5303;53.266;10.410;2023-02-04T01:21:15;3.10;;;1.90;;
10509;SDS011;5303;53.266;10.410;2023-02-04T01:23:40;4.60;;;1.90;;
10509;SDS011;5303;53.266;10.410;2023-02-04T01:26:06;4.90;;;1.47;;
10509;SDS011;5303;53.266;10.410;2023-02-04T01:28:31;4.50;;;1.90;;
10509;SDS011;5303;53.266;10.410;2023-02-04T01:30:56;4.53;;;1.77;;
10509;SDS011;5303;53.266;10.410;2023-02-04T01:33:22;3.80;;;1.60;;
10509;SDS011;5303;53.266;10.410;2023-02-04T01:35:47;5.27;;;1.67;;
10509;SDS011;5303;53.266;10.410;2023-02-04T01:38:13;3.77;;;2.13;;
10509;SDS011;5303;53.266;10.410;2023-02-04T01:40:38;3.30;;;1.90;;
10509;SDS011;5303;53.266;10.410;2023-02-04T01:43:04;2.60;;;1.83;;
10509;SDS011;5303;53.266;10.410;2023-02-04T01:45:30;2.67;;;1.70;;
10509;SDS011;5303;53.266;10.410;2023-02-04T01:47:58;3.67;;;1.97;;
10509;SDS011;5303;53.266;10.410;2023-02-04T01:50:24;4.00;;;1.80;;
10509;SDS011;5303;53.266;10.410;2023-02-04T01:52:50;4.03;;;2.10;;
10509;SDS011;5303;53.266;10.410;2023-02-04T01:55:19;4.27;;;1.97;;
10509;SDS011;5303;53.266;10.410;2023-02-04T01:57:48;3.87;;;1.50;;
10509;SDS011;5303;53.266;10.410;2023-02-04T02:00:15;3.97;;;1.97;;
10509;SDS011;5303;53.266;10.410;2023-02-04T02:02:44;5.20;;;1.93;;
10509;SDS011;5303;53.266;10.410;2023-02-04T02:05:12;4.57;;;2.30;;
10509;SDS011;5303;53.266;10.410;2023-02-04T02:07:42;3.67;;;1.93;;
10509;SDS011;5303;53.266;10.410;2023-02-04T02:10:09;2.13;;;1.70;;
10509;SDS011;5303;53.266;10.410;2023-02-04T02:12:37;2.87;;;1.80;;
10509;SDS011;5303;53.266;10.410;2023-02-04T02:15:03;3.07;;;1.93;;
10509;SDS011;5303;53.266;10.410;2023-02-04T02:17:29;2.93;;;1.90;;
10509;SDS011;5303;53.266;10.410;2023-02-04T02:19:54;2.97;;;1.77;;
10509;SDS011;5303;53.266;10.410;2023-02-04T02:22:31;3.03;;;1.97;;
10509;SDS011;5303;53.266;10.410;2023-02-04T02:25:06;4.57;;;1.80;;
10509;SDS011;5303;53.266;10.410;2023-02-04T02:27:33;2.77;;;1.70;;
10509;SDS011;5303;53.266;10.410;2023-02-04T02:29:58;3.33;;;1.93;;
10509;SDS011;5303;53.266;10.410;2023-02-04T02:32:23;2.20;;;1.70;;
10509;SDS011;5303;53.266;10.410;2023-02-04T02:34:49;3.10;;;1.83;;
10509;SDS011;5303;53.266;10.410;2023-02-04T02:37:14;3.30;;;1.80;;
10509;SDS011;5303;53.266;10.410;2023-02-04T02:39:39;3.47;;;1.73;;
10509;SDS011;5303;53.266;10.410;2023-02-04T02:42:08;3.13;;;1.90;;
10509;SDS011;5303;53.266;10.410;2023-02-04T02:44:37;3.27;;;2.03;;
10509;SDS011;5303;53.266;10.410;2023-02-04T02:47:02;2.77;;;1.97;;
10509;SDS011;5303;53.266;10.410;2023-02-04T02:49:28;3.33;;;2.00;;
10509;SDS011;5303;53.266;10.410;2023-02-04T02:51:55;5.47;;;2.67;;
10509;SDS011;5303;53.266;10.410;2023-02-04T02:54:22;5.03;;;2.50;;
10509;SDS011;5303;53.266;10.410;2023-02-04T02:56:50;3.37;;;2.03;;
10509;SDS011;5303;53.266;10.410;2023-02-04T02:59:16;2.17;;;1.97;;
10509;SDS011;5303;53.266;10.410;2023-02-04T03:01:42;2.70;;;2.33;;
10509;SDS011;5303;53.266;10.410;2023-02-04T03:04:09;3.43;;;2.50;;
10509;SDS011;5303;53.266;10.410;2023-02-04T03:06:36;4.50;;;3.30;;
10509;SDS011;5303;53.266;10.410;2023-02-04T03:09:01;5.73;;;2.70;;
10509;SDS011;5303;53.266;10.410;2023-02-04T03:11:27;3.80;;;2.70;;
10509;SDS011;5303;53.266;10.410;2023-02-04T03:13:54;6.33;;;3.00;;
10509;SDS011;5303;53.266;10.410;2023-02-04T03:16:20;5.87;;;3.20;;
10509;SDS011;5303;53.266;10.410;2023-02-04T03:18:46;4.43;;;2.90;;
10509;SDS011;5303;53.266;10.410;2023-02-04T03:21:12;3.03;;;2.20;;
10509;SDS011;5303;53.266;10.410;2023-02-04T03:23:37;4.50;;;2.23;;
10509;SDS011;5303;53.266;10.410;2023-02-04T03:26:03;2.60;;;2.30;;
10509;SDS011;5303;53.266;10.410;2023-02-04T03:28:29;4.17;;;2.40;;
10509;SDS011;5303;53.266;10.410;2023-02-04T03:30:56;4.43;;;2.57;;
10509;SDS011;5303;53.266;10.410;2023-02-04T03:33:22;6.97;;;2.80;;
10509;SDS011;5303;53.266;10.410;2023-02-04T03:35:50;4.43;;;2.47;;
10509;SDS011;5303;53.266;10.410;2023-02-04T03:38:16;4.17;;;2.40;;
10509;SDS011;5303;53.266;10.410;2023-02-04T03:40:42;4.23;;;3.27;;
10509;SDS011;5303;53.266;10.410;2023-02-04T03:43:07;3.27;;;2.60;;
10509;SDS011;5303;53.266;10.410;2023-02-04T03:45:32;3.13;;;2.50;;
10509;SDS011;5303;53.266;10.410;2023-02-04T03:47:58;3.43;;;2.40;;
10509;SDS011;5303;53.266;10.410;2023-02-04T03:50:23;3.90;;;2.83;;
10509;SDS011;5303;53.266;10.410;2023-02-04T03:52:48;4.97;;;2.77;;
10509;SDS011;5303;53.266;10.410;2023-02-04T03:55:15;5.97;;;2.97;;
10509;SDS011;5303;53.266;10.410;2023-02-04T03:57:40;4.90;;;2.80;;
10509;SDS011;5303;53.266;10.410;2023-02-04T04:00:06;4.77;;;2.73;;
10509;SDS011;5303;53.266;10.410;2023-02-04T04:02:32;4.03;;;2.80;;
10509;SDS011;5303;53.266;10.410;2023-02-04T04:04:57;3.17;;;2.20;;
10509;SDS011;5303;53.266;10.410;2023-02-04T04:07:22;4.10;;;2.53;;
10509;SDS011;5303;53.266;10.410;2023-02-04T04:09:48;3.13;;;2.30;;
10509;SDS011;5303;53.266;10.410;2023-02-04T04:12:13;3.03;;;2.33;;
10509;SDS011;5303;53.266;10.410;2023-02-04T04:14:38;4.67;;;2.50;;
10509;SDS011;5303;53.266;10.410;2023-02-04T04:17:03;3.87;;;2.43;;
10509;SDS011;5303;53.266;10.410;2023-02-04T04:19:29;2.67;;;2.37;;
10509;SDS011;5303;53.266;10.410;2023-02-04T04:21:56;3.80;;;2.57;;
10509;SDS011;5303;53.266;10.410;2023-02-04T04:24:21;4.17;;;2.57;;
10509;SDS011;5303;53.266;10.410;2023-02-04T04:26:46;2.33;;;2.10;;
10509;SDS011;5303;53.266;10.410;2023-02-04T04:29:11;4.60;;;2.50;;
10509;SDS011;5303;53.266;10.410;2023-02-04T04:31:37;3.70;;;2.50;;
10509;SDS011;5303;53.266;10.410;2023-02-04T04:34:02;5.83;;;2.97;;
10509;SDS011;5303;53.266;10.410;2023-02-04T04:36:27;4.23;;;2.90;;
10509;SDS011;5303;53.266;10.410;2023-02-04T04:38:52;3.33;;;2.70;;
10509;SDS011;5303;53.266;10.410;2023-02-04T04:41:18;3.17;;;2.40;;
10509;SDS011;5303;53.266;10.410;2023-02-04T04:43:43;2.83;;;2.43;;
10509;SDS011;5303;53.266;10.410;2023-02-04T04:46:08;3.57;;;2.30;;
10509;SDS011;5303;53.266;10.410;2023-02-04T04:48:34;3.83;;;2.50;;
10509;SDS011;5303;53.266;10.410;2023-02-04T04:50:59;3.73;;;2.40;;
10509;SDS011;5303;53.266;10.410;2023-02-04T04:53:24;2.63;;;2.30;;
10509;SDS011;5303;53.266;10.410;2023-02-04T04:55:49;3.23;;;2.37;;
10509;SDS011;5303;53.266;10.410;2023-02-04T04:58:15;3.20;;;2.60;;
10509;SDS011;5303;53.266;10.410;2023-02-04T05:00:40;2.90;;;2.30;;
10509;SDS011;5303;53.266;10.410;2023-02-04T05:03:05;4.07;;;2.50;;
10509;SDS011;5303;53.266;10.410;2023-02-04T05:05:31;3.60;;;2.57;;
10509;SDS011;5303;53.266;10.410;2023-02-04T05:07:58;2.73;;;2.40;;
10509;SDS011;5303;53.266;10.410;2023-02-04T05:10:23;3.60;;;2.30;;
10509;SDS011;5303;53.266;10.410;2023-02-04T05:12:48;2.60;;;2.20;;
10509;SDS011;5303;53.266;10.410;2023-02-04T05:15:13;3.10;;;2.37;;
10509;SDS011;5303;53.266;10.410;2023-02-04T05:17:39;3.90;;;2.30;;
10509;SDS011;5303;53.266;10.410;2023-02-04T05:20:04;2.93;;;2.23;;
10509;SDS011;5303;53.266;10.410;2023-02-04T05:22:30;4.40;;;2.57;;
10509;SDS011;5303;53.266;10.410;2023-02-04T05:24:55;2.57;;;2.37;;
10509;SDS011;5303;53.266;10.410;2023-02-04T05:27:20;3.30;;;2.00;;
10509;SDS011;5303;53.266;10.410;2023-02-04T05:29:45;5.10;;;2.63;;
10509;SDS011;5303;53.266;10.410;2023-02-04T05:32:11;3.30;;;3.00;;
10509;SDS011;5303;53.266;10.410;2023-02-04T05:34:36;2.80;;;2.47;;
10509;SDS011;5303;53.266;10.410;2023-02-04T05:37:01;2.97;;;2.67;;
10509;SDS011;5303;53.266;10.410;2023-02-04T05:39:27;4.20;;;2.60;;
10509;SDS011;5303;53.266;10.410;2023-02-04T05:41:52;3.23;;;2.27;;
10509;SDS011;5303;53.266;10.410;2023-02-04T05:44:18;3.90;;;2.50;;
10509;SDS011;5303;53.266;10.410;2023-02-04T05:46:43;2.53;;;2.33;;
10509;SDS011;5303;53.266;10.410;2023-02-04T05:49:08;3.57;;;2.30;;
10509;SDS011;5303;53.266;10.410;2023-02-04T05:51:34;3.03;;;2.40;;
10509;SDS011;5303;53.266;10.410;2023-02-04T05:53:59;3.27;;;2.70;;
10509;SDS011;5303;53.266;10.410;2023-02-04T05:56:25;2.60;;;2.27;;
10509;SDS011;5303;53.266;10.410;2023-02-04T05:58:50;3.17;;;2.50;;
10509;SDS011;5303;53.266;10.410;2023-02-04T06:01:15;2.77;;;2.30;;
10509;SDS011;5303;53.266;10.410;2023-02-04T06:03:41;3.27;;;2.70;;
10509;SDS011;5303;53.266;10.410;2023-02-04T06:06:06;3.73;;;2.73;;
10509;SDS011;5303;53.266;10.410;2023-02-04T06:08:31;3.53;;;2.37;;
10509;SDS011;5303;53.266;10.410;2023-02-04T06:10:57;2.37;;;2.10;;
10509;SDS011;5303;53.266;10.410;2023-02-04T06:13:22;3.80;;;2.47;;
10509;SDS011;5303;53.266;10.410;2023-02-04T06:15:47;3.63;;;2.50;;
10509;SDS011;5303;53.266;10.410;2023-02-04T06:18:12;3.33;;;2.50;;
10509;SDS011;5303;53.266;10.410;2023-02-04T06:20:38;3.07;;;2.30;;
10509;SDS011;5303;53.266;10.410;2023-02-04T06:23:04;3.10;;;2.40;;
10509;SDS011;5303;53.266;10.410;2023-02-04T06:25:30;2.67;;;2.37;;
10509;SDS011;5303;53.266;10.410;2023-02-04T06:27:55;2.63;;;2.20;;
10509;SDS011;5303;53.266;10.410;2023-02-04T06:30:20;3.40;;;2.10;;
10509;SDS011;5303;53.266;10.410;2023-02-04T06:32:46;3.13;;;2.30;;
10509;SDS011;5303;53.266;10.410;2023-02-04T06:35:11;3.50;;;2.23;;
10509;SDS011;5303;53.266;10.410;2023-02-04T06:37:37;3.97;;;2.90;;
10509;SDS011;5303;53.266;10.410;2023-02-04T06:40:03;3.70;;;2.77;;
10509;SDS011;5303;53.266;10.410;2023-02-04T06:42:29;4.67;;;2.70;;
10509;SDS011;5303;53.266;10.410;2023-02-04T06:44:54;3.97;;;2.77;;
10509;SDS011;5303;53.266;10.410;2023-02-04T06:47:19;3.43;;;2.60;;
10509;SDS011;5303;53.266;10.410;2023-02-04T06:49:45;4.77;;;2.97;;
10509;SDS011;5303;53.266;10.410;2023-02-04T06:52:10;3.90;;;2.53;;
10509;SDS011;5303;53.266;10.410;2023-02-04T06:54:36;3.80;;;2.73;;
10509;SDS011;5303;53.266;10.410;2023-02-04T06:57:01;3.93;;;2.80;;
10509;SDS011;5303;53.266;10.410;2023-02-04T06:59:31;5.00;;;3.00;;
10509;SDS011;5303;53.266;10.410;2023-02-04T07:02:00;3.03;;;2.73;;
10509;SDS011;5303;53.266;10.410;2023-02-04T07:04:26;4.10;;;2.90;;
10509;SDS011;5303;53.266;10.410;2023-02-04T07:06:51;3.60;;;2.60;;
10509;SDS011;5303;53.266;10.410;2023-02-04T07:09:17;3.47;;;2.63;;
10509;SDS011;5303;53.266;10.410;2023-02-04T07:11:42;3.30;;;2.80;;
10509;SDS011;5303;53.266;10.410;2023-02-04T07:14:07;4.30;;;3.03;;
10509;SDS011;5303;53.266;10.410;2023-02-04T07:16:34;5.60;;;2.63;;
10509;SDS011;5303;53.266;10.410;2023-02-04T07:18:59;4.43;;;3.03;;
10509;SDS011;5303;53.266;10.410;2023-02-04T07:21:25;3.67;;;3.00;;
10509;SDS011;5303;53.266;10.410;2023-02-04T07:23:50;4.80;;;2.97;;
10509;SDS011;5303;53.266;10.410;2023-02-04T07:26:16;3.07;;;2.77;;
10509;SDS011;5303;53.266;10.410;2023-02-04T07:28:41;3.63;;;3.20;;
10509;SDS011;5303;53.266;10.410;2023-02-04T07:31:07;4.67;;;3.07;;
10509;SDS011;5303;53.266;10.410;2023-02-04T07:33:32;4.67;;;2.93;;
10509;SDS011;5303;53.266;10.410;2023-02-04T07:35:58;3.93;;;3.03;;
10509;SDS011;5303;53.266;10.410;2023-02-04T07:38:23;6.00;;;3.10;;
10509;SDS011;5303;53.266;10.410;2023-02-04T07:40:48;5.23;;;3.03;;
10509;SDS011;5303;53.266;10.410;2023-02-04T07:43:13;4.43;;;3.17;;
10509;SDS011;5303;53.266;10.410;2023-02-04T07:45:40;5.73;;;3.93;;
10509;SDS011;5303;53.266;10.410;2023-02-04T07:48:05;20.77;;;12.10;;
10509;SDS011;5303;53.266;10.410;2023-02-04T07:50:30;33.57;;;19.40;;
10509;SDS011;5303;53.266;10.410;2023-02-04T07:52:56;34.37;;;19.97;;
10509;SDS011;5303;53.266;10.410;2023-02-04T07:55:21;26.47;;;17.23;;
10509;SDS011;5303;53.266;10.410;2023-02-04T07:57:46;20.43;;;11.87;;
10509;SDS011;5303;53.266;10.410;2023-02-04T08:00:12;7.67;;;5.30;;
10509;SDS011;5303;53.266;10.410;2023-02-04T08:02:38;5.30;;;3.93;;
10509;SDS011;5303;53.266;10.410;2023-02-04T08:05:04;5.53;;;3.60;;
10509;SDS011;5303;53.266;10.410;2023-02-04T08:07:30;6.63;;;4.00;;
10509;SDS011;5303;53.266;10.410;2023-02-04T08:09:55;4.67;;;3.63;;
10509;SDS011;5303;53.266;10.410;2023-02-04T08:12:20;4.97;;;3.70;;
10509;SDS011;5303;53.266;10.410;2023-02-04T08:14:46;5.10;;;3.27;;
10509;SDS011;5303;53.266;10.410;2023-02-04T08:17:11;4.43;;;4.03;;
10509;SDS011;5303;53.266;10.410;2023-02-04T08:19:36;6.63;;;5.53;;
10509;SDS011;5303;53.266;10.410;2023-02-04T08:22:02;7.27;;;6.10;;
10509;SDS011;5303;53.266;10.410;2023-02-04T08:24:27;5.27;;;4.33;;
10509;SDS011;5303;53.266;10.410;2023-02-04T08:26:52;5.57;;;3.93;;
10509;SDS011;5303;53.266;10.410;2023-02-04T08:29:17;4.97;;;3.80;;
10509;SDS011;5303;53.266;10.410;2023-02-04T08:31:43;5.07;;;4.10;;
10509;SDS011;5303;53.266;10.410;2023-02-04T08:34:09;6.93;;;4.20;;
10509;SDS011;5303;53.266;10.410;2023-02-04T08:36:34;6.17;;;4.67;;
10509;SDS011;5303;53.266;10.410;2023-02-04T08:38:59;5.23;;;4.23;;
10509;SDS011;5303;53.266;10.410;2023-02-04T08:41:25;5.47;;;3.93;;
10509;SDS011;5303;53.266;10.410;2023-02-04T08:43:50;5.97;;;3.47;;
10509;SDS011;5303;53.266;10.410;2023-02-04T08:46:15;9.53;;;4.17;;
10509;SDS011;5303;53.266;10.410;2023-02-04T08:48:40;6.23;;;3.70;;
10509;SDS011;5303;53.266;10.410;2023-02-04T08:51:06;5.83;;;3.97;;
10509;SDS011;5303;53.266;10.410;2023-02-04T08:53:31;4.70;;;3.80;;
10509;SDS011;5303;53.266;10.410;2023-02-04T08:55:56;4.87;;;3.37;;
10509;SDS011;5303;53.266;10.410;2023-02-04T08:58:21;4.50;;;3.20;;
10509;SDS011;5303;53.266;10.410;2023-02-04T09:00:47;4.77;;;3.70;;
10509;SDS011;5303;53.266;10.410;2023-02-04T09:03:12;4.30;;;3.80;;
10509;SDS011;5303;53.266;10.410;2023-02-04T09:05:37;3.80;;;3.07;;
10509;SDS011;5303;53.266;10.410;2023-02-04T09:08:03;4.70;;;3.57;;
10509;SDS011;5303;53.266;10.410;2023-02-04T09:10:28;3.97;;;3.00;;
10509;SDS011;5303;53.266;10.410;2023-02-04T09:12:53;3.70;;;2.80;;
10509;SDS011;5303;53.266;10.410;2023-02-04T09:15:20;4.73;;;2.90;;
10509;SDS011;5303;53.266;10.410;2023-02-04T09:17:47;3.83;;;2.80;;
10509;SDS011;5303;53.266;10.410;2023-02-04T09:20:13;3.23;;;2.50;;
10509;SDS011;5303;53.266;10.410;2023-02-04T09:22:38;3.50;;;2.10;;
10509;SDS011;5303;53.266;10.410;2023-02-04T09:25:03;3.67;;;2.17;;
10509;SDS011;5303;53.266;10.410;2023-02-04T09:27:29;6.03;;;2.97;;
10509;SDS011;5303;53.266;10.410;2023-02-04T09:29:54;3.63;;;2.20;;
10509;SDS011;5303;53.266;10.410;2023-02-04T09:32:19;3.77;;;2.53;;
10509;SDS011;5303;53.266;10.410;2023-02-04T09:34:45;6.93;;;2.10;;
10509;SDS011;5303;53.266;10.410;2023-02-04T09:37:11;3.87;;;2.50;;
10509;SDS011;5303;53.266;10.410;2023-02-04T09:39:36;5.13;;;2.30;;
10509;SDS011;5303;53.266;10.410;2023-02-04T09:42:01;3.03;;;2.40;;
10509;SDS011;5303;53.266;10.410;2023-02-04T09:44:27;4.03;;;2.13;;
10509;SDS011;5303;53.266;10.410;2023-02-04T09:46:53;3.63;;;2.50;;
10509;SDS011;5303;53.266;10.410;2023-02-04T09:49:21;3.13;;;2.23;;
10509;SDS011;5303;53.266;10.410;2023-02-04T09:51:47;4.03;;;2.50;;
10509;SDS011;5303;53.266;10.410;2023-02-04T09:54:15;5.27;;;2.30;;
10509;SDS011;5303;53.266;10.410;2023-02-04T09:56:42;5.47;;;2.60;;
10509;SDS011;5303;53.266;10.410;2023-02-04T09:59:18;6.60;;;2.37;;
10509;SDS011;5303;53.266;10.410;2023-02-04T10:01:54;3.57;;;2.40;;
10509;SDS011;5303;53.266;10.410;2023-02-04T10:04:23;4.13;;;2.57;;
10509;SDS011;5303;53.266;10.410;2023-02-04T10:06:49;3.57;;;2.23;;
10509;SDS011;5303;53.266;10.410;2023-02-04T10:09:14;3.70;;;2.10;;
10509;SDS011;5303;53.266;10.410;2023-02-04T10:11:41;3.43;;;2.30;;
10509;SDS011;5303;53.266;10.410;2023-02-04T10:14:09;3.70;;;2.13;;
10509;SDS011;5303;53.266;10.410;2023-02-04T10:16:38;2.77;;;2.07;;
10509;SDS011;5303;53.266;10.410;2023-02-04T10:19:06;4.13;;;2.23;;
10509;SDS011;5303;53.266;10.410;2023-02-04T10:21:39;4.10;;;2.07;;
10509;SDS011;5303;53.266;10.410;2023-02-04T10:24:09;3.13;;;1.80;;
10509;SDS011;5303;53.266;10.410;2023-02-04T10:26:38;3.10;;;1.77;;
10509;SDS011;5303;53.266;10.410;2023-02-04T10:29:05;4.27;;;1.90;;
10509;SDS011;5303;53.266;10.410;2023-02-04T10:36:48;3.63;;;1.83;;
10509;SDS011;5303;53.266;10.410;2023-02-04T10:39:21;2.20;;;1.60;;
10509;SDS011;5303;53.266;10.410;2023-02-04T10:41:50;3.40;;;2.00;;
10509;SDS011;5303;53.266;10.410;2023-02-04T10:44:18;2.53;;;1.50;;
10509;SDS011;5303;53.266;10.410;2023-02-04T10:46:49;2.27;;;1.47;;
10509;SDS011;5303;53.266;10.410;2023-02-04T10:49:22;3.33;;;1.77;;
10509;SDS011;5303;53.266;10.410;2023-02-04T10:51:49;2.77;;;1.50;;
10509;SDS011;5303;53.266;10.410;2023-02-04T10:54:16;2.80;;;1.40;;
10509;SDS011;5303;53.266;10.410;2023-02-04T10:57:04;4.17;;;1.70;;
10509;SDS011;5303;53.266;10.410;2023-02-04T10:59:38;3.08;;;1.80;;
10509;SDS011;5303;53.266;10.410;2023-02-04T11:02:15;2.77;;;1.60;;
10509;SDS011;5303;53.266;10.410;2023-02-04T11:04:56;3.93;;;1.63;;
10509;SDS011;5303;53.266;10.410;2023-02-04T11:07:21;3.60;;;1.60;;
10509;SDS011;5303;53.266;10.410;2023-02-04T11:09:47;1.73;;;1.40;;
10509;SDS011;5303;53.266;10.410;2023-02-04T11:12:34;3.10;;;1.43;;
10509;SDS011;5303;53.266;10.410;2023-02-04T11:15:05;1.63;;;1.20;;
10509;SDS011;5303;53.266;10.410;2023-02-04T11:17:32;2.73;;;1.50;;
10509;SDS011;5303;53.266;10.410;2023-02-04T11:19:59;2.17;;;1.20;;
10509;SDS011;5303;53.266;10.410;2023-02-04T11:22:44;1.80;;;1.40;;
10509;SDS011;5303;53.266;10.410;2023-02-04T11:25:32;2.60;;;1.40;;
10509;SDS011;5303;53.266;10.410;2023-02-04T11:27:59;1.90;;;1.30;;
10509;SDS011;5303;53.266;10.410;2023-02-04T11:30:29;3.27;;;1.53;;
10509;SDS011;5303;53.266;10.410;2023-02-04T11:33:03;3.60;;;1.40;;
10509;SDS011;5303;53.266;10.410;2023-02-04T11:35:29;3.13;;;1.50;;
10509;SDS011;5303;53.266;10.410;2023-02-04T11:37:55;2.17;;;1.37;;
10509;SDS011;5303;53.266;10.410;2023-02-04T11:42:47;1.77;;;1.17;;
10509;SDS011;5303;53.266;10.410;2023-02-04T11:45:14;3.73;;;1.60;;
10509;SDS011;5303;53.266;10.410;2023-02-04T11:47:41;1.87;;;1.23;;
10509;SDS011;5303;53.266;10.410;2023-02-04T11:50:12;2.00;;;1.30;;
10509;SDS011;5303;53.266;10.410;2023-02-04T11:52:41;2.00;;;1.40;;
10509;SDS011;5303;53.266;10.410;2023-02-04T11:55:09;1.97;;;1.50;;
10509;SDS011;5303;53.266;10.410;2023-02-04T11:57:39;1.43;;;1.03;;
10509;SDS011;5303;53.266;10.410;2023-02-04T12:00:11;3.40;;;1.60;;
10509;SDS011;5303;53.266;10.410;2023-02-04T12:02:43;1.60;;;1.20;;
10509;SDS011;5303;53.266;10.410;2023-02-04T12:05:15;1.67;;;1.20;;
10509;SDS011;5303;53.266;10.410;2023-02-04T12:07:43;1.47;;;1.10;;
10509;SDS011;5303;53.266;10.410;2023-02-04T12:10:10;2.43;;;1.50;;
10509;SDS011;5303;53.266;10.410;2023-02-04T12:12:54;2.77;;;1.47;;
10509;SDS011;5303;53.266;10.410;2023-02-04T12:15:23;3.03;;;1.40;;
10509;SDS011;5303;53.266;10.410;2023-02-04T12:18:06;2.10;;;1.10;;
10509;SDS011;5303;53.266;10.410;2023-02-04T12:20:33;2.27;;;1.27;;
10509;SDS011;5303;53.266;10.410;2023-02-04T12:22:59;2.17;;;1.20;;
10509;SDS011;5303;53.266;10.410;2023-02-04T12:25:24;2.83;;;1.30;;
10509;SDS011;5303;53.266;10.410;2023-02-04T12:27:51;1.70;;;1.30;;
10509;SDS011;5303;53.266;10.410;2023-02-04T12:30:18;1.37;;;1.27;;
10509;SDS011;5303;53.266;10.410;2023-02-04T12:32:44;1.87;;;1.17;;
10509;SDS011;5303;53.266;10.410;2023-02-04T12:35:10;4.60;;;1.40;;
10509;SDS011;5303;53.266;10.410;2023-02-04T12:37:35;3.33;;;1.20;;
10509;SDS011;5303;53.266;10.410;2023-02-04T12:40:00;2.37;;;1.10;;
10509;SDS011;5303;53.266;10.410;2023-02-04T12:42:25;2.40;;;1.20;;
10509;SDS011;5303;53.266;10.410;2023-02-04T12:44:51;2.17;;;1.33;;
10509;SDS011;5303;53.266;10.410;2023-02-04T12:47:16;5.20;;;1.80;;
10509;SDS011;5303;53.266;10.410;2023-02-04T12:49:41;1.90;;;1.20;;
10509;SDS011;5303;53.266;10.410;2023-02-04T12:52:07;2.03;;;1.30;;
10509;SDS011;5303;53.266;10.410;2023-02-04T12:54:33;1.40;;;1.17;;
10509;SDS011;5303;53.266;10.410;2023-02-04T12:56:58;1.93;;;1.30;;
10509;SDS011;5303;53.266;10.410;2023-02-04T12:59:24;1.97;;;1.27;;
10509;SDS011;5303;53.266;10.410;2023-02-04T13:01:49;2.57;;;1.30;;
10509;SDS011;5303;53.266;10.410;2023-02-04T13:04:15;1.60;;;1.50;;
10509;SDS011;5303;53.266;10.410;2023-02-04T13:06:40;2.20;;;1.43;;
10509;SDS011;5303;53.266;10.410;2023-02-04T13:09:05;1.40;;;1.20;;
10509;SDS011;5303;53.266;10.410;2023-02-04T13:11:30;2.07;;;1.50;;
10509;SDS011;5303;53.266;10.410;2023-02-04T13:13:56;3.63;;;1.60;;
10509;SDS011;5303;53.266;10.410;2023-02-04T13:16:21;1.37;;;1.20;;
10509;SDS011;5303;53.266;10.410;2023-02-04T13:18:48;2.00;;;1.43;;
10509;SDS011;5303;53.266;10.410;2023-02-04T13:21:14;2.97;;;1.40;;
10509;SDS011;5303;53.266;10.410;2023-02-04T13:23:40;2.00;;;1.30;;
10509;SDS011;5303;53.266;10.410;2023-02-04T13:26:05;1.93;;;1.40;;
10509;SDS011;5303;53.266;10.410;2023-02-04T13:28:32;2.60;;;1.60;;
10509;SDS011;5303;53.266;10.410;2023-02-04T13:30:58;2.90;;;1.53;;
10509;SDS011;5303;53.266;10.410;2023-02-04T13:33:23;2.97;;;1.70;;
10509;SDS011;5303;53.266;10.410;2023-02-04T13:35:48;3.13;;;1.60;;
10509;SDS011;5303;53.266;10.410;2023-02-04T13:38:13;1.90;;;1.70;;
10509;SDS011;5303;53.266;10.410;2023-02-04T13:40:39;2.20;;;1.50;;
10509;SDS011;5303;53.266;10.410;2023-02-04T13:43:04;1.27;;;1.03;;
10509;SDS011;5303;53.266;10.410;2023-02-04T13:45:29;2.60;;;1.67;;
10509;SDS011;5303;53.266;10.410;2023-02-04T13:47:54;1.73;;;1.43;;
10509;SDS011;5303;53.266;10.410;2023-02-04T13:50:20;1.93;;;1.50;;
10509;SDS011;5303;53.266;10.410;2023-02-04T13:52:45;2.40;;;1.33;;
10509;SDS011;5303;53.266;10.410;2023-02-04T13:55:10;3.50;;;1.90;;
10509;SDS011;5303;53.266;10.410;2023-02-04T13:57:35;2.33;;;1.40;;
10509;SDS011;5303;53.266;10.410;2023-02-04T14:00:02;1.77;;;1.40;;
10509;SDS011;5303;53.266;10.410;2023-02-04T14:02:28;2.17;;;1.20;;
10509;SDS011;5303;53.266;10.410;2023-02-04T14:04:54;2.43;;;1.10;;
10509;SDS011;5303;53.266;10.410;2023-02-04T14:07:21;2.37;;;1.47;;
10509;SDS011;5303;53.266;10.410;2023-02-04T14:09:46;1.90;;;1.40;;
10509;SDS011;5303;53.266;10.410;2023-02-04T14:12:12;1.87;;;1.43;;
10509;SDS011;5303;53.266;10.410;2023-02-04T14:14:38;4.47;;;2.80;;
10509;SDS011;5303;53.266;10.410;2023-02-04T14:17:03;3.60;;;2.17;;
10509;SDS011;5303;53.266;10.410;2023-02-04T14:19:28;3.87;;;2.30;;
10509;SDS011;5303;53.266;10.410;2023-02-04T14:21:53;2.47;;;1.67;;
10509;SDS011;5303;53.266;10.410;2023-02-04T14:24:19;1.97;;;1.50;;
10509;SDS011;5303;53.266;10.410;2023-02-04T14:26:44;2.47;;;1.70;;
10509;SDS011;5303;53.266;10.410;2023-02-04T14:29:10;2.47;;;1.30;;
10509;SDS011;5303;53.266;10.410;2023-02-04T14:31:35;2.03;;;1.70;;
10509;SDS011;5303;53.266;10.410;2023-02-04T14:34:01;1.37;;;1.00;;
10509;SDS011;5303;53.266;10.410;2023-02-04T14:36:26;2.97;;;1.10;;
10509;SDS011;5303;53.266;10.410;2023-02-04T14:38:52;4.03;;;1.57;;
10509;SDS011;5303;53.266;10.410;2023-02-04T14:41:17;3.40;;;1.97;;
10509;SDS011;5303;53.266;10.410;2023-02-04T14:43:45;1.27;;;1.17;;
10509;SDS011;5303;53.266;10.410;2023-02-04T14:46:10;3.23;;;1.37;;
10509;SDS011;5303;53.266;10.410;2023-02-04T14:48:35;1.67;;;1.10;;
10509;SDS011;5303;53.266;10.410;2023-02-04T14:51:00;4.17;;;1.30;;